createdAt,value
2022-11-30T00:00:01.095Z,28.9
2022-11-30T00:01:01.383Z,28.9
2022-11-30T00:02:01.571Z,28.9
2022-11-30T00:03:01.693Z,29.1
2022-11-30T00:04:01.475Z,29.1
2022-11-30T00:05:01.110Z,29.2
2022-11-30T00:06:01.118Z,29.6
2022-11-30T00:07:01.125Z,29.9
2022-11-30T00:08:00.848Z,30.1
2022-11-30T00:09:00.612Z,30
2022-11-30T00:10:00.341Z,30
2022-11-30T00:11:00.009Z,30.1
2022-11-30T00:11:59.598Z,30.1
2022-11-30T00:13:02.216Z,30.3
2022-11-30T00:14:01.164Z,30.5
2022-11-30T00:15:01.071Z,30.5
2022-11-30T00:16:01.065Z,30.6
2022-11-30T00:17:01.087Z,30.3
2022-11-30T00:18:01.078Z,30.4
2022-11-30T00:19:01.107Z,30.6
2022-11-30T00:20:01.192Z,30.7
2022-11-30T00:21:01.164Z,30.5
2022-11-30T00:22:01.103Z,30.7
2022-11-30T00:23:01.053Z,30.7
2022-11-30T00:24:01.128Z,30.6
2022-11-30T00:25:01.121Z,30.6
2022-11-30T00:26:01.141Z,30.7
2022-11-30T00:27:01.141Z,30.7
2022-11-30T00:28:00.840Z,30.6
2022-11-30T00:29:00.535Z,30.5
2022-11-30T00:30:00.488Z,30.3
2022-11-30T00:31:00.190Z,30.3
2022-11-30T00:31:59.839Z,30.3
2022-11-30T00:33:01.484Z,30.3
2022-11-30T00:34:01.789Z,30.6
2022-11-30T00:35:01.087Z,30.5
2022-11-30T00:36:01.213Z,30.6
2022-11-30T00:37:01.421Z,30.6
2022-11-30T00:38:01.428Z,30.7
2022-11-30T00:39:04.094Z,30.6
2022-11-30T00:40:02.644Z,30.5
2022-11-30T00:41:01.686Z,30.5
2022-11-30T00:42:01.131Z,30.4
2022-11-30T00:43:01.135Z,30.6
2022-11-30T00:44:01.151Z,30.8
2022-11-30T00:45:01.184Z,30.7
2022-11-30T00:46:01.792Z,30.7
2022-11-30T00:47:01.179Z,30.7
2022-11-30T00:48:01.071Z,30.6
2022-11-30T00:49:01.093Z,30.7
2022-11-30T00:50:01.138Z,30.8
2022-11-30T00:51:01.137Z,30.9
2022-11-30T00:52:01.128Z,30.9
2022-11-30T00:53:01.229Z,31.2
2022-11-30T00:54:01.479Z,31.2
2022-11-30T00:55:04.263Z,31.3
2022-11-30T00:56:03.796Z,31.4
2022-11-30T00:57:01.116Z,31.4
2022-11-30T00:58:01.121Z,31.4
2022-11-30T00:59:01.180Z,31.1
2022-11-30T01:00:01.735Z,31.1
2022-11-30T01:01:08.013Z,31
2022-11-30T01:02:01.271Z,31
2022-11-30T01:03:01.057Z,31.1
2022-11-30T01:04:01.353Z,31.3
2022-11-30T01:05:01.078Z,31.3
2022-11-30T01:06:11.216Z,31.2
2022-11-30T01:07:01.535Z,31.3
2022-11-30T01:08:01.480Z,31.2
2022-11-30T01:09:01.471Z,31.3
2022-11-30T01:10:01.135Z,31.3
2022-11-30T01:11:13.796Z,31.3
2022-11-30T01:12:01.832Z,31.3
2022-11-30T01:13:01.527Z,31.4
2022-11-30T01:14:01.163Z,31.4
2022-11-30T01:15:01.178Z,31.5
2022-11-30T01:16:16.212Z,31.5
2022-11-30T01:17:01.255Z,31.5
2022-11-30T01:18:01.160Z,31.3
2022-11-30T01:19:01.059Z,31.3
2022-11-30T01:20:01.071Z,31.2
2022-11-30T01:21:01.041Z,31.2
2022-11-30T01:22:01.094Z,31.1
2022-11-30T01:23:01.083Z,30.9
2022-11-30T01:24:01.061Z,30.8
2022-11-30T01:25:01.106Z,30.9
2022-11-30T01:26:01.359Z,30.8
2022-11-30T01:27:01.157Z,30.8
2022-11-30T01:28:01.068Z,30.7
2022-11-30T01:29:01.143Z,30.7
2022-11-30T01:30:01.138Z,30.7
2022-11-30T01:31:01.234Z,30.7
2022-11-30T01:32:01.135Z,30.6
2022-11-30T01:33:01.316Z,30.5
2022-11-30T01:34:01.531Z,30.4
2022-11-30T01:35:01.165Z,30.4
2022-11-30T01:36:01.064Z,30.4
2022-11-30T01:37:01.093Z,30.3
2022-11-30T01:38:01.087Z,30.1
2022-11-30T01:39:01.893Z,30.1
2022-11-30T01:40:02.045Z,30.1
2022-11-30T01:41:01.100Z,30.1
2022-11-30T01:42:01.504Z,29.9
2022-11-30T01:43:01.113Z,29.9
2022-11-30T01:44:01.116Z,29.6
2022-11-30T01:45:01.077Z,29.7
2022-11-30T01:46:01.118Z,29.8
2022-11-30T01:47:01.051Z,29.6
2022-11-30T01:48:01.146Z,29.5
2022-11-30T01:49:01.154Z,29.5
2022-11-30T01:50:01.220Z,29.4
2022-11-30T01:51:01.210Z,29.4
2022-11-30T01:52:03.960Z,29.5
2022-11-30T01:53:01.785Z,29.4
2022-11-30T01:54:01.761Z,29.4
2022-11-30T01:55:01.406Z,29.2
2022-11-30T01:56:01.091Z,29.2
2022-11-30T01:57:01.476Z,29.2
2022-11-30T01:58:01.224Z,29.1
2022-11-30T01:59:02.472Z,29
2022-11-30T02:00:01.129Z,29
2022-11-30T02:01:01.157Z,29
2022-11-30T02:02:01.249Z,29
2022-11-30T02:03:01.155Z,29
2022-11-30T02:04:01.057Z,29
2022-11-30T02:05:01.171Z,29
2022-11-30T02:06:01.150Z,29.1
2022-11-30T02:07:01.537Z,29.1
2022-11-30T02:08:01.220Z,28.9
2022-11-30T02:09:02.089Z,28.9
2022-11-30T02:10:01.093Z,28.9
2022-11-30T02:11:00.775Z,28.9
2022-11-30T02:12:00.576Z,28.9
2022-11-30T02:13:00.378Z,28.9
2022-11-30T02:14:00.173Z,28.8
2022-11-30T02:15:00.195Z,28.7
2022-11-30T02:16:00.256Z,28.6
2022-11-30T02:17:00.033Z,28.6
2022-11-30T02:17:59.932Z,28.7
2022-11-30T02:18:59.894Z,28.7
2022-11-30T02:19:59.702Z,28.7
2022-11-30T02:21:01.437Z,28.7
2022-11-30T02:22:01.158Z,28.8
2022-11-30T02:23:01.159Z,28.9
2022-11-30T02:24:01.243Z,28.9
2022-11-30T02:25:01.464Z,28.7
2022-11-30T02:26:01.103Z,28.7
2022-11-30T02:27:01.086Z,28.8
2022-11-30T02:28:01.105Z,28.8
2022-11-30T02:29:01.794Z,28.8
2022-11-30T02:30:01.036Z,28.7
2022-11-30T02:31:01.132Z,28.6
2022-11-30T02:32:01.221Z,28.6
2022-11-30T02:33:01.126Z,28.6
2022-11-30T02:34:01.516Z,28.4
2022-11-30T02:35:01.134Z,28.4
2022-11-30T02:36:01.137Z,28.4
2022-11-30T02:37:04.187Z,28.5
2022-11-30T02:38:01.159Z,28.5
2022-11-30T02:39:01.042Z,28.3
2022-11-30T02:40:01.078Z,28.1
2022-11-30T02:41:01.064Z,28.1
2022-11-30T02:42:06.065Z,28.2
2022-11-30T02:43:01.075Z,28.3
2022-11-30T02:44:01.077Z,28.4
2022-11-30T02:45:01.094Z,28.3
2022-11-30T02:46:01.076Z,28.1
2022-11-30T02:47:09.967Z,28
2022-11-30T02:48:01.242Z,28.2
2022-11-30T02:49:01.264Z,28.2
2022-11-30T02:50:01.175Z,28.2
2022-11-30T02:51:01.361Z,28.2
2022-11-30T02:52:11.838Z,28.2
2022-11-30T02:53:01.154Z,28.3
2022-11-30T02:54:03.889Z,28.4
2022-11-30T02:55:01.148Z,28.4
2022-11-30T02:56:01.057Z,28.4
2022-11-30T02:57:15.368Z,28.4
2022-11-30T02:58:01.904Z,28.5
2022-11-30T02:59:01.291Z,28.4
2022-11-30T03:00:01.472Z,28.5
2022-11-30T03:01:02.156Z,28.6
2022-11-30T03:02:01.092Z,28.7
2022-11-30T03:03:01.113Z,28.7
2022-11-30T03:04:01.104Z,28.7
2022-11-30T03:05:01.114Z,28.7
2022-11-30T03:06:01.123Z,28.8
2022-11-30T03:07:01.121Z,28.9
2022-11-30T03:08:01.604Z,28.8
2022-11-30T03:09:01.238Z,28.8
2022-11-30T03:10:01.967Z,29
2022-11-30T03:11:01.965Z,28.8
2022-11-30T03:12:01.152Z,29
2022-11-30T03:13:01.069Z,29
2022-11-30T03:14:01.739Z,29
2022-11-30T03:15:01.085Z,28.9
2022-11-30T03:16:01.365Z,28.9
2022-11-30T03:17:01.330Z,28.8
2022-11-30T03:18:01.091Z,28.7
2022-11-30T03:19:01.102Z,28.7
2022-11-30T03:20:01.751Z,28.8
2022-11-30T03:21:01.118Z,28.9
2022-11-30T03:22:01.125Z,28.9
2022-11-30T03:23:01.139Z,29
2022-11-30T03:24:01.151Z,28.9
2022-11-30T03:25:01.133Z,28.8
2022-11-30T03:26:01.147Z,28.6
2022-11-30T03:27:01.143Z,28.6
2022-11-30T03:28:01.549Z,28.8
2022-11-30T03:29:01.245Z,29
2022-11-30T03:30:01.063Z,29.1
2022-11-30T03:31:01.269Z,29.2
2022-11-30T03:32:01.072Z,28.9
2022-11-30T03:33:01.084Z,29.1
2022-11-30T03:34:01.106Z,29.2
2022-11-30T03:35:01.098Z,29.1
2022-11-30T03:36:01.114Z,29.1
2022-11-30T03:37:01.113Z,29.1
2022-11-30T03:38:01.513Z,29.1
2022-11-30T03:39:00.819Z,28.9
2022-11-30T03:40:00.611Z,28.9
2022-11-30T03:41:00.209Z,28.8
2022-11-30T03:41:59.807Z,29
2022-11-30T03:43:01.452Z,29
2022-11-30T03:44:01.350Z,29.1
2022-11-30T03:45:01.996Z,28.9
2022-11-30T03:46:01.179Z,28.8
2022-11-30T03:47:01.082Z,29
2022-11-30T03:48:01.086Z,29.1
2022-11-30T03:49:01.072Z,29.1
2022-11-30T03:50:01.098Z,29.1
2022-11-30T03:51:01.097Z,29.1
2022-11-30T03:52:01.133Z,28.9
2022-11-30T03:53:01.270Z,28.9
2022-11-30T03:54:01.237Z,28.7
2022-11-30T03:55:01.114Z,28.3
2022-11-30T03:56:01.134Z,28
2022-11-30T03:57:01.157Z,28
2022-11-30T03:58:01.131Z,28.1
2022-11-30T03:59:01.140Z,28.2
2022-11-30T04:00:01.152Z,28.3
2022-11-30T04:01:01.337Z,28.3
2022-11-30T04:02:01.444Z,28.4
2022-11-30T04:03:02.183Z,28.3
2022-11-30T04:04:01.183Z,28.3
2022-11-30T04:05:01.089Z,28.2
2022-11-30T04:06:01.095Z,28.1
2022-11-30T04:07:01.083Z,28
2022-11-30T04:08:01.161Z,27.9
2022-11-30T04:09:01.574Z,28.1
2022-11-30T04:10:08.139Z,28.3
2022-11-30T04:11:01.752Z,28.4
2022-11-30T04:12:01.127Z,28.2
2022-11-30T04:13:01.429Z,28.4
2022-11-30T04:14:02.680Z,28.9
2022-11-30T04:15:02.600Z,29.1
2022-11-30T04:16:01.620Z,28.9
2022-11-30T04:17:02.591Z,29.1
2022-11-30T04:18:02.583Z,29.1
2022-11-30T04:19:01.897Z,29.4
2022-11-30T04:20:01.738Z,29.7
2022-11-30T04:21:01.213Z,29.8
2022-11-30T04:22:01.863Z,29.7
2022-11-30T04:23:06.080Z,29.8
2022-11-30T04:24:02.367Z,30
2022-11-30T04:25:01.043Z,29.8
2022-11-30T04:26:01.113Z,29.8
2022-11-30T04:27:01.114Z,30
2022-11-30T04:28:08.856Z,30.1
2022-11-30T04:29:04.329Z,30
2022-11-30T04:30:01.044Z,30.1
2022-11-30T04:31:01.410Z,30.3
2022-11-30T04:32:01.778Z,30.3
2022-11-30T04:33:11.936Z,30.6
2022-11-30T04:34:01.164Z,30.5
2022-11-30T04:35:01.066Z,30.7
2022-11-30T04:36:01.516Z,30.8
2022-11-30T04:37:01.084Z,31
2022-11-30T04:38:14.701Z,31
2022-11-30T04:39:01.095Z,31.1
2022-11-30T04:40:01.797Z,31.3
2022-11-30T04:41:00.993Z,31.4
2022-11-30T04:42:01.232Z,31.2
2022-11-30T04:43:00.552Z,31.4
2022-11-30T04:44:00.188Z,31.5
2022-11-30T04:44:59.791Z,31.9
2022-11-30T04:46:01.435Z,31.9
2022-11-30T04:47:01.179Z,31.6
2022-11-30T04:48:01.142Z,31.4
2022-11-30T04:49:01.344Z,31.3
2022-11-30T04:50:02.161Z,31.6
2022-11-30T04:51:01.992Z,32
2022-11-30T04:52:01.166Z,31.7
2022-11-30T04:53:01.405Z,31.7
2022-11-30T04:54:01.088Z,31.7
2022-11-30T04:55:01.060Z,31.6
2022-11-30T04:56:01.069Z,31.6
2022-11-30T04:57:01.106Z,31.5
2022-11-30T04:58:01.643Z,31.1
2022-11-30T04:59:00.807Z,31.1
2022-11-30T05:00:00.408Z,31.1
2022-11-30T05:01:00.093Z,31.2
2022-11-30T05:01:59.714Z,31.1
2022-11-30T05:03:01.728Z,31
2022-11-30T05:04:01.475Z,31
2022-11-30T05:05:01.681Z,31.1
2022-11-30T05:06:01.718Z,31.1
2022-11-30T05:07:02.086Z,31.1
2022-11-30T05:08:02.180Z,31.2
2022-11-30T05:09:01.175Z,31.2
2022-11-30T05:10:01.843Z,31.4
2022-11-30T05:11:02.021Z,31.4
2022-11-30T05:12:01.109Z,31.5
2022-11-30T05:13:01.097Z,31.3
2022-11-30T05:14:00.713Z,31.3
2022-11-30T05:15:00.715Z,31.1
2022-11-30T05:16:00.402Z,31.1
2022-11-30T05:17:00.250Z,31.1
2022-11-30T05:18:00.254Z,31
2022-11-30T05:18:59.896Z,30.8
2022-11-30T05:19:59.513Z,31
2022-11-30T05:21:01.468Z,31
2022-11-30T05:22:02.173Z,31
2022-11-30T05:23:02.170Z,31.1
2022-11-30T05:24:01.408Z,31
2022-11-30T05:25:01.195Z,31
2022-11-30T05:26:01.095Z,30.6
2022-11-30T05:27:01.097Z,30.3
2022-11-30T05:28:01.162Z,30.5
2022-11-30T05:29:01.091Z,30.4
2022-11-30T05:30:01.096Z,30.5
2022-11-30T05:31:01.191Z,30.6
2022-11-30T05:32:00.496Z,30.5
2022-11-30T05:33:00.081Z,30.6
2022-11-30T05:33:59.688Z,30.8
2022-11-30T05:35:01.434Z,30.7
2022-11-30T05:36:05.839Z,30.6
2022-11-30T05:37:01.326Z,30.5
2022-11-30T05:38:01.264Z,30.1
2022-11-30T05:39:02.609Z,30.2
2022-11-30T05:40:01.966Z,30.1
2022-11-30T05:41:01.702Z,30.2
2022-11-30T05:42:01.091Z,30.2
2022-11-30T05:43:01.704Z,30.3
2022-11-30T05:44:00.765Z,30.4
2022-11-30T05:45:00.492Z,30.4
2022-11-30T05:46:00.119Z,30.6
2022-11-30T05:46:59.938Z,30.6
2022-11-30T05:47:59.566Z,30.5
2022-11-30T05:49:02.455Z,30.3
2022-11-30T05:50:02.556Z,30.2
2022-11-30T05:51:02.368Z,30.1
2022-11-30T05:52:02.048Z,30.2
2022-11-30T05:53:02.047Z,30.2
2022-11-30T05:54:01.151Z,30.2
2022-11-30T05:55:01.471Z,30.1
2022-11-30T05:56:01.677Z,30.1
2022-11-30T05:57:02.416Z,30.1
2022-11-30T05:58:01.090Z,30.3
2022-11-30T05:59:01.189Z,30.5
2022-11-30T06:00:01.101Z,30.8
2022-11-30T06:01:01.230Z,31
2022-11-30T06:02:01.210Z,31.3
2022-11-30T06:03:02.072Z,31.3
2022-11-30T06:04:08.511Z,31.4
2022-11-30T06:05:01.881Z,31.7
2022-11-30T06:06:01.530Z,31.9
2022-11-30T06:07:01.130Z,31.9
2022-11-30T06:08:01.216Z,31.8
2022-11-30T06:09:06.469Z,31.8
2022-11-30T06:10:01.382Z,31.9
2022-11-30T06:11:01.061Z,31.9
2022-11-30T06:12:01.423Z,31.9
2022-11-30T06:13:01.053Z,31.9
2022-11-30T06:14:09.132Z,31.9
2022-11-30T06:15:01.053Z,31.9
2022-11-30T06:16:01.437Z,32
2022-11-30T06:17:01.920Z,32.1
2022-11-30T06:18:02.089Z,32.1
2022-11-30T06:19:12.623Z,32
2022-11-30T06:20:01.109Z,32
2022-11-30T06:21:01.061Z,32
2022-11-30T06:22:00.616Z,32
2022-11-30T06:23:00.307Z,32
2022-11-30T06:24:14.018Z,32
2022-11-30T06:25:01.059Z,32
2022-11-30T06:26:01.160Z,32
2022-11-30T06:27:01.103Z,32
2022-11-30T06:28:01.140Z,32
2022-11-30T06:29:16.822Z,31.9
2022-11-30T06:30:01.090Z,31.9
2022-11-30T06:31:01.095Z,31.8
2022-11-30T06:32:01.156Z,32
2022-11-30T06:33:01.087Z,32.3
2022-11-30T06:34:01.106Z,32.5
2022-11-30T06:35:01.303Z,32.4
2022-11-30T06:36:01.114Z,32.8
2022-11-30T06:37:01.114Z,33.1
2022-11-30T06:38:01.131Z,33.5
2022-11-30T06:39:01.344Z,33.8
2022-11-30T06:40:08.554Z,34.2
2022-11-30T06:41:01.965Z,34.4
2022-11-30T06:42:01.140Z,34.7
2022-11-30T06:43:01.572Z,34.9
2022-11-30T06:44:01.190Z,35.2
2022-11-30T06:45:01.060Z,35.5
2022-11-30T06:46:01.147Z,35.6
2022-11-30T06:47:01.131Z,36
2022-11-30T06:48:01.540Z,36
2022-11-30T06:49:01.372Z,36.3
2022-11-30T06:50:02.187Z,36.6
2022-11-30T06:51:02.026Z,36.9
2022-11-30T06:52:02.010Z,37.1
2022-11-30T06:53:01.532Z,37.3
2022-11-30T06:54:01.725Z,37.2
2022-11-30T06:55:01.164Z,37.4
2022-11-30T06:56:04.085Z,37.5
2022-11-30T06:57:01.538Z,37.6
2022-11-30T06:58:06.165Z,37.5
2022-11-30T06:59:01.215Z,37.5
2022-11-30T07:00:00.763Z,37.8
2022-11-30T07:01:00.594Z,38.4
2022-11-30T07:02:05.989Z,39.2
2022-11-30T07:03:01.471Z,39.8
2022-11-30T07:04:02.418Z,39.7
2022-11-30T07:05:01.173Z,39.8
2022-11-30T07:06:01.903Z,40
2022-11-30T07:07:01.491Z,40
2022-11-30T07:08:01.552Z,40.7
2022-11-30T07:09:01.509Z,41.1
2022-11-30T07:10:01.331Z,41.1
2022-11-30T07:11:03.061Z,41.3
2022-11-30T07:12:02.137Z,41.8
2022-11-30T07:13:01.160Z,41.9
2022-11-30T07:14:01.164Z,42
2022-11-30T07:15:01.564Z,42.2
2022-11-30T07:16:01.560Z,42.4
2022-11-30T07:17:02.053Z,43.2
2022-11-30T07:18:01.176Z,43.5
2022-11-30T07:19:01.069Z,43.5
2022-11-30T07:20:01.084Z,43.8
2022-11-30T07:21:01.143Z,43.9
2022-11-30T07:22:00.895Z,43.8
2022-11-30T07:23:01.479Z,44.2
2022-11-30T07:24:01.219Z,44.6
2022-11-30T07:25:01.123Z,44.8
2022-11-30T07:26:01.127Z,45.5
2022-11-30T07:27:01.132Z,45.9
2022-11-30T07:28:01.124Z,46.2
2022-11-30T07:29:01.143Z,46.7
2022-11-30T07:30:01.140Z,47.1
2022-11-30T07:31:01.544Z,47.6
2022-11-30T07:32:01.208Z,47.7
2022-11-30T07:33:01.053Z,47.7
2022-11-30T07:34:01.074Z,47.6
2022-11-30T07:35:01.071Z,47.6
2022-11-30T07:36:01.086Z,47.5
2022-11-30T07:37:03.829Z,47.5
2022-11-30T07:38:06.713Z,47.4
2022-11-30T07:39:01.784Z,47.4
2022-11-30T07:40:01.193Z,47.3
2022-11-30T07:41:04.041Z,46.9
2022-11-30T07:42:01.528Z,47.2
2022-11-30T07:43:01.113Z,47.5
2022-11-30T07:44:01.136Z,47.6
2022-11-30T07:45:05.574Z,47.5
2022-11-30T07:46:01.543Z,47.8
2022-11-30T07:47:01.354Z,48.2
2022-11-30T07:48:01.363Z,48.6
2022-11-30T07:49:01.372Z,49.3
2022-11-30T07:50:06.893Z,49.8
2022-11-30T07:51:01.073Z,50.1
2022-11-30T07:52:01.110Z,50.1
2022-11-30T07:53:01.077Z,50.1
2022-11-30T07:54:01.086Z,50.2
2022-11-30T07:55:10.182Z,50.1
2022-11-30T07:56:01.094Z,50.6
2022-11-30T07:57:01.405Z,52
2022-11-30T07:58:04.537Z,53.2
2022-11-30T07:59:02.141Z,52.6
2022-11-30T08:00:12.661Z,52.3
2022-11-30T08:01:01.331Z,52.5
2022-11-30T08:02:01.178Z,52.5
2022-11-30T08:03:02.578Z,52.8
2022-11-30T08:04:01.067Z,52.5
2022-11-30T08:05:15.512Z,52.4
2022-11-30T08:06:01.133Z,52.9
2022-11-30T08:07:01.369Z,53.5
2022-11-30T08:08:01.437Z,53.9
2022-11-30T08:09:01.910Z,54.9
2022-11-30T08:10:16.992Z,55.8
2022-11-30T08:11:01.049Z,56.8
2022-11-30T08:12:01.059Z,56.8
2022-11-30T08:13:01.112Z,56.7
2022-11-30T08:14:01.123Z,56.3
2022-11-30T08:16:01.152Z,56.3
2022-11-30T08:17:01.825Z,56.6
2022-11-30T08:18:01.230Z,57
2022-11-30T08:19:00.547Z,57.8
2022-11-30T08:20:00.248Z,60
2022-11-30T08:20:59.978Z,60.8
2022-11-30T08:22:00.245Z,61.3
2022-11-30T08:22:59.935Z,61.8
2022-11-30T08:23:59.599Z,63.5
2022-11-30T08:25:01.975Z,65.8
2022-11-30T08:26:01.098Z,67.3
2022-11-30T08:27:01.061Z,69.2
2022-11-30T08:28:01.200Z,70.1
2022-11-30T08:29:01.134Z,70.2
2022-11-30T08:30:01.126Z,70.2
2022-11-30T08:31:01.603Z,70.2
2022-11-30T08:32:01.071Z,70.2
2022-11-30T08:33:00.715Z,69.8
2022-11-30T08:34:00.415Z,69.5
2022-11-30T08:35:00.124Z,69.2
2022-11-30T08:35:59.729Z,68.9
2022-11-30T08:37:01.460Z,68.3
2022-11-30T08:38:01.056Z,67.9
2022-11-30T08:39:01.086Z,68.2
2022-11-30T08:40:01.098Z,68
2022-11-30T08:41:01.546Z,68
2022-11-30T08:42:01.501Z,67.8
2022-11-30T08:43:01.110Z,67.9
2022-11-30T08:44:01.106Z,67.7
2022-11-30T08:45:01.453Z,67
2022-11-30T08:46:01.525Z,66.8
2022-11-30T08:47:01.840Z,67.7
2022-11-30T08:48:01.439Z,68.3
2022-11-30T08:50:02.570Z,69.8
2022-11-30T08:51:01.393Z,69.3
2022-11-30T08:52:18.593Z,69.7
2022-11-30T08:53:06.270Z,72.5
2022-11-30T08:54:01.169Z,76.5
2022-11-30T08:55:01.491Z,77.9
2022-11-30T08:56:01.785Z,78.5
2022-11-30T08:57:00.667Z,79.2
2022-11-30T08:58:00.317Z,80.3
2022-11-30T08:58:59.961Z,81.1
2022-11-30T08:59:59.761Z,80.9
2022-11-30T09:01:02.150Z,80.1
2022-11-30T09:02:01.430Z,80.2
2022-11-30T09:03:02.748Z,79.7
2022-11-30T09:04:01.131Z,79.1
2022-11-30T09:05:01.140Z,79.4
2022-11-30T09:06:01.157Z,80
2022-11-30T09:07:01.175Z,80.1
2022-11-30T09:08:01.202Z,80.2
2022-11-30T09:09:01.222Z,79.9
2022-11-30T09:10:02.488Z,80.3
2022-11-30T09:11:01.935Z,80.4
2022-11-30T09:12:01.881Z,80.7
2022-11-30T09:13:01.069Z,81.1
2022-11-30T09:14:01.199Z,81
2022-11-30T09:15:01.417Z,81
2022-11-30T09:16:01.968Z,81.4
2022-11-30T09:17:03.013Z,82.1
2022-11-30T09:18:01.502Z,83.5
2022-11-30T09:19:01.234Z,84.3
2022-11-30T09:20:02.190Z,87.1
2022-11-30T09:21:02.660Z,88.7
2022-11-30T09:22:00.928Z,90
2022-11-30T09:23:00.609Z,90.5
2022-11-30T09:24:00.209Z,90.5
2022-11-30T09:24:59.807Z,90.6
2022-11-30T09:26:02.210Z,91.7
2022-11-30T09:27:02.781Z,92.1
2022-11-30T09:28:01.967Z,92.6
2022-11-30T09:29:01.750Z,93.7
2022-11-30T09:30:01.473Z,94.6
2022-11-30T09:31:01.257Z,95.2
2022-11-30T09:32:01.007Z,95.4
2022-11-30T09:33:00.783Z,95.3
2022-11-30T09:34:00.428Z,95.4
2022-11-30T09:35:00.182Z,95.5
2022-11-30T09:36:01.321Z,95.6
2022-11-30T09:37:00.608Z,95.5
2022-11-30T09:38:00.300Z,95.4
2022-11-30T09:39:00.008Z,95.5
2022-11-30T09:39:59.688Z,95.7
2022-11-30T09:41:04.340Z,95.8
2022-11-30T09:42:01.606Z,95.9
2022-11-30T09:43:01.964Z,96.3
2022-11-30T09:44:01.260Z,97.1
2022-11-30T09:45:01.080Z,97.5
2022-11-30T09:46:07.112Z,97.7
2022-11-30T09:47:03.943Z,98.1
2022-11-30T09:48:01.094Z,98.7
2022-11-30T09:49:01.096Z,99.9
2022-11-30T09:50:01.098Z,99.9
2022-11-30T09:51:10.076Z,99.9
2022-11-30T09:52:01.364Z,99.9
2022-11-30T09:53:01.498Z,99.9
2022-11-30T09:54:01.232Z,99.9
2022-11-30T09:55:01.134Z,99.9
2022-11-30T09:56:12.837Z,99.9
2022-11-30T09:57:01.156Z,99.9
2022-11-30T09:58:01.166Z,99.9
2022-11-30T09:59:01.169Z,99.9
2022-11-30T10:00:01.088Z,99.9
2022-11-30T10:01:16.099Z,99.9
2022-11-30T10:02:01.565Z,99.9
2022-11-30T10:03:01.721Z,99.9
2022-11-30T10:04:02.150Z,99.9
2022-11-30T10:05:01.492Z,99.9
2022-11-30T10:06:01.127Z,99.9
2022-11-30T10:07:01.116Z,99.9
2022-11-30T10:08:01.237Z,99.9
2022-11-30T10:09:01.853Z,99.9
2022-11-30T10:10:31.591Z,99.9
2022-11-30T10:11:01.604Z,99.5
2022-11-30T10:12:01.155Z,99.1
2022-11-30T10:13:01.137Z,98.9
2022-11-30T10:14:01.151Z,98.8
2022-11-30T10:15:03.917Z,98.3
2022-11-30T10:16:01.822Z,98.2
2022-11-30T10:17:01.070Z,97.8
2022-11-30T10:18:01.073Z,97.6
2022-11-30T10:19:01.055Z,97.1
2022-11-30T10:20:01.092Z,96.7
2022-11-30T10:21:01.059Z,96.6
2022-11-30T10:22:01.260Z,96.3
2022-11-30T10:23:01.103Z,95.5
2022-11-30T10:24:01.493Z,95.2
2022-11-30T10:25:01.119Z,95.2
2022-11-30T10:26:01.045Z,95.2
2022-11-30T10:27:01.148Z,94.8
2022-11-30T10:28:17.779Z,94.7
2022-11-30T10:29:01.152Z,94.7
2022-11-30T10:30:01.311Z,94.8
2022-11-30T10:31:01.187Z,94.9
2022-11-30T10:32:01.543Z,94.8
2022-11-30T10:33:01.470Z,93.6
2022-11-30T10:34:01.074Z,92.7
2022-11-30T10:35:01.086Z,91.7
2022-11-30T10:36:01.086Z,91.8
2022-11-30T10:37:01.170Z,91.4
2022-11-30T10:38:01.098Z,90.6
2022-11-30T10:39:01.109Z,90
2022-11-30T10:40:01.111Z,90
2022-11-30T10:41:01.821Z,89
2022-11-30T10:42:01.525Z,87.5
2022-11-30T10:43:01.451Z,87.4
2022-11-30T10:44:02.159Z,87.3
2022-11-30T10:45:02.923Z,88
2022-11-30T10:46:01.766Z,88.9
2022-11-30T10:47:01.219Z,88.6
2022-11-30T10:48:01.081Z,88.8
2022-11-30T10:49:01.063Z,87.9
2022-11-30T10:50:01.076Z,87.5
2022-11-30T10:51:01.074Z,87.4
2022-11-30T10:52:01.479Z,87.6
2022-11-30T10:53:01.137Z,87.6
2022-11-30T10:54:01.978Z,87.3
2022-11-30T10:55:04.793Z,86.4
2022-11-30T10:56:01.140Z,84.8
2022-11-30T10:57:01.043Z,83.5
2022-11-30T10:58:01.123Z,81.9
2022-11-30T10:59:01.053Z,81.3
2022-11-30T11:00:01.647Z,80.1
2022-11-30T11:01:01.271Z,79.1
2022-11-30T11:02:01.456Z,78.6
2022-11-30T11:03:01.196Z,78.7
2022-11-30T11:04:01.290Z,78.9
2022-11-30T11:05:01.057Z,78.7
2022-11-30T11:06:01.070Z,78.8
2022-11-30T11:07:01.219Z,78.7
2022-11-30T11:08:06.273Z,78.6
2022-11-30T11:09:01.472Z,78.8
2022-11-30T11:10:01.218Z,78.4
2022-11-30T11:11:01.273Z,78.3
2022-11-30T11:12:01.137Z,78.3
2022-11-30T11:13:01.956Z,77.8
2022-11-30T11:14:01.119Z,76.2
2022-11-30T11:15:01.199Z,75.8
2022-11-30T11:16:01.270Z,75.7
2022-11-30T11:17:01.231Z,75.8
2022-11-30T11:18:01.521Z,76.5
2022-11-30T11:19:01.122Z,76
2022-11-30T11:20:01.125Z,75.3
2022-11-30T11:21:04.318Z,74.6
2022-11-30T11:22:01.108Z,75
2022-11-30T11:23:00.777Z,75.2
2022-11-30T11:24:00.475Z,75.5
2022-11-30T11:25:00.303Z,76
2022-11-30T11:26:00.215Z,76
2022-11-30T11:27:01.374Z,75.9
2022-11-30T11:28:01.111Z,76.3
2022-11-30T11:29:01.076Z,75.5
2022-11-30T11:30:01.170Z,75.2
2022-11-30T11:31:01.164Z,73.6
2022-11-30T11:32:05.114Z,73.5
2022-11-30T11:33:01.797Z,72.9
2022-11-30T11:34:01.196Z,71
2022-11-30T11:35:01.395Z,70.1
2022-11-30T11:36:01.404Z,70.8
2022-11-30T11:37:06.927Z,71.7
2022-11-30T11:38:01.473Z,71.2
2022-11-30T11:39:01.087Z,71.4
2022-11-30T11:40:01.307Z,71.2
2022-11-30T11:41:01.161Z,71.3
2022-11-30T11:42:09.844Z,71.9
2022-11-30T11:43:00.906Z,71.8
2022-11-30T11:44:01.120Z,70.4
2022-11-30T11:45:01.225Z,70.4
2022-11-30T11:46:01.563Z,70.4
2022-11-30T11:47:12.671Z,70.4
2022-11-30T11:48:02.273Z,70.4
2022-11-30T11:49:01.709Z,70.2
2022-11-30T11:50:01.323Z,70.4
2022-11-30T11:51:07.124Z,70.4
2022-11-30T11:52:14.543Z,70.4
2022-11-30T11:53:01.157Z,70
2022-11-30T11:54:01.111Z,67.5
2022-11-30T11:55:01.463Z,67.2
2022-11-30T11:56:01.121Z,65.2
2022-11-30T11:57:16.159Z,64.2
2022-11-30T11:58:01.498Z,63.9
2022-11-30T11:59:01.223Z,64.3
2022-11-30T12:00:01.109Z,65
2022-11-30T12:01:23.847Z,65
2022-11-30T12:02:01.122Z,64.5
2022-11-30T12:03:01.025Z,63.1
2022-11-30T12:04:01.219Z,61.9
2022-11-30T12:05:00.746Z,61.9
2022-11-30T12:06:00.734Z,60.9
2022-11-30T12:07:00.472Z,60.9
2022-11-30T12:08:00.212Z,60.7
2022-11-30T12:08:59.931Z,60.4
2022-11-30T12:09:59.538Z,59.7
2022-11-30T12:11:01.958Z,59.4
2022-11-30T12:12:01.047Z,59.8
2022-11-30T12:13:01.081Z,59.8
2022-11-30T12:14:01.083Z,59.9
2022-11-30T12:15:02.493Z,59.4
2022-11-30T12:16:01.260Z,58.4
2022-11-30T12:17:01.107Z,58
2022-11-30T12:18:01.383Z,58.1
2022-11-30T12:19:01.140Z,57.5
2022-11-30T12:20:01.165Z,57.6
2022-11-30T12:21:01.088Z,57.7
2022-11-30T12:22:01.156Z,57.5
2022-11-30T12:23:00.876Z,57.1
2022-11-30T12:24:01.686Z,57.2
2022-11-30T12:25:05.919Z,57.4
2022-11-30T12:26:01.144Z,57.5
2022-11-30T12:27:01.079Z,57.3
2022-11-30T12:28:01.076Z,56
2022-11-30T12:29:01.090Z,55.8
2022-11-30T12:30:01.076Z,56
2022-11-30T12:31:01.183Z,56
2022-11-30T12:32:01.101Z,56
2022-11-30T12:33:01.190Z,56
2022-11-30T12:34:00.855Z,55.9
2022-11-30T12:35:00.804Z,56
2022-11-30T12:36:00.808Z,56.5
2022-11-30T12:37:01.528Z,56.8
2022-11-30T12:38:01.138Z,56.9
2022-11-30T12:39:01.785Z,57
2022-11-30T12:40:01.151Z,57.4
2022-11-30T12:41:01.171Z,57.4
2022-11-30T12:42:01.057Z,57.6
2022-11-30T12:43:00.872Z,57.9
2022-11-30T12:44:01.186Z,57.9
2022-11-30T12:45:01.077Z,58.3
2022-11-30T12:46:01.440Z,58.4
2022-11-30T12:47:01.154Z,58
2022-11-30T12:48:01.501Z,58.2
2022-11-30T12:49:01.130Z,58.5
2022-11-30T12:50:01.955Z,58.6
2022-11-30T12:51:01.797Z,58.4
2022-11-30T12:52:01.159Z,58.4
2022-11-30T12:53:01.134Z,58.4
2022-11-30T12:54:01.129Z,58
2022-11-30T12:55:01.186Z,58
2022-11-30T12:56:01.148Z,58
2022-11-30T12:57:01.150Z,57.7
2022-11-30T12:58:01.240Z,58.1
2022-11-30T12:59:01.446Z,58.1
2022-11-30T13:00:01.317Z,57.7
2022-11-30T13:01:02.630Z,57.4
2022-11-30T13:02:01.521Z,57.3
2022-11-30T13:03:01.326Z,57.7
2022-11-30T13:04:02.017Z,58.2
2022-11-30T13:05:02.120Z,58
2022-11-30T13:06:01.128Z,58.3
2022-11-30T13:07:01.108Z,58.3
2022-11-30T13:08:01.646Z,58.5
2022-11-30T13:09:01.123Z,58.6
2022-11-30T13:10:01.189Z,58.5
2022-11-30T13:11:01.248Z,58.5
2022-11-30T13:12:01.158Z,58.5
2022-11-30T13:13:01.171Z,58.7
2022-11-30T13:14:01.181Z,59
2022-11-30T13:15:01.090Z,59.1
2022-11-30T13:16:01.539Z,58.5
2022-11-30T13:17:01.135Z,58.2
2022-11-30T13:18:01.089Z,58.3
2022-11-30T13:19:01.077Z,57.9
2022-11-30T13:20:01.093Z,57.6
2022-11-30T13:21:06.366Z,57.7
2022-11-30T13:22:01.216Z,57.7
2022-11-30T13:23:01.820Z,57.9
2022-11-30T13:24:01.128Z,58.3
2022-11-30T13:25:01.576Z,58.5
2022-11-30T13:26:09.565Z,58.3